This is the latest recevied weather packets stored in our database for station/object EA1L-13. If no packets are shown the sender has not sent any weather packets the latest 1 day(s).
| Time | Temp. | Humidity | Pressure | Rain* | Wind** | Luminosity | Snow |
|---|---|---|---|---|---|---|---|
| 1777990504 | 11.67° C | 84% | 1012.3 hPa | 1.52 mm | 0 m/s | - | - |
| 1777989604 | 11.67° C | 80% | 1012.2 hPa | 1.52 mm | 0.45 m/s, 329° | - | - |
| 1777988704 | 13.33° C | 75% | 1012 hPa | 0.25 mm | 1.79 m/s, 35° | - | - |
| 1777987804 | 13.33° C | 81% | 1011.9 hPa | 0.25 mm | 0.89 m/s, 285° | - | - |
| 1777986904 | 12.78° C | 84% | 1012.1 hPa | 0 mm | 2.24 m/s, 317° | - | - |
| 1777986004 | 12.22° C | 86% | 1012.2 hPa | 0 mm | 1.34 m/s, 311° | - | - |
| 1777985104 | 11.11° C | 88% | 1012.2 hPa | 0 mm | 1.34 m/s, 322° | - | - |
| 1777984205 | 10.56° C | 87% | 1012.2 hPa | 0 mm | 0.89 m/s, 337° | - | - |
| 1777983304 | 10.56° C | 83% | 1012.2 hPa | 0 mm | 2.68 m/s, 355° | - | - |
| 1777982404 | 11.11° C | 76% | 1012.2 hPa | 0 mm | 1.34 m/s, 345° | - | - |
| 1777981504 | 13.33° C | 79% | 1011.9 hPa | 0 mm | 2.68 m/s, 335° | - | - |
| 1777980604 | 12.22° C | 86% | 1012 hPa | 0.25 mm | 2.24 m/s, 351° | - | - |
| 1777979704 | 12.22° C | 91% | 1012.2 hPa | 0.25 mm | 2.24 m/s, 311° | - | - |
| 1777978804 | 11.67° C | 96% | 1012.3 hPa | 0.25 mm | 0.89 m/s, 319° | - | - |
| 1777977904 | 11.11° C | 93% | 1012.4 hPa | 0.25 mm | 1.34 m/s, 3° | - | - |
| 1777977004 | 12.22° C | 95% | 1012.3 hPa | 0 mm | 3.58 m/s, 340° | - | - |
| 1777976104 | 13.33° C | 100% | 1012.2 hPa | 0 mm | 2.68 m/s, 268° | - | - |
| 1777975204 | 13.89° C | 100% | 1012.2 hPa | 0 mm | 2.68 m/s, 292° | - | - |
| 1777974303 | 13.89° C | 100% | 1012.2 hPa | 0 mm | 3.13 m/s, 266° | - | - |
| 1777973405 | 13.89° C | 100% | 1012.2 hPa | 0 mm | 0.89 m/s, 315° | - | - |
| 1777972504 | 13.89° C | 100% | 1012.2 hPa | 0 mm | 0 m/s | - | - |
| 1777971604 | 13.89° C | 100% | 1012.3 hPa | 0 mm | 0.45 m/s, 261° | - | - |
| 1777970705 | 13.89° C | 100% | 1012.4 hPa | 0 mm | 0 m/s | - | - |
| 1777969804 | 13.33° C | 100% | 1012.3 hPa | 0.25 mm | 0 m/s | - | - |
| 1777968904 | 13.33° C | 100% | 1012.3 hPa | 0.25 mm | 0 m/s | - | - |
* Rain latest hour (hover to see other rain measurements)
** Current wind speed in m/s (hover to see current wind gust speed)